Time;durP1;ratioP1;P1;durP2;ratioP2;P2;SDS_P1;SDS_P2;PMS_P1;PMS_P2;Temp;Humidity;BMP_temperature;BMP_pressure;BME280_temperature;BME280_humidity;BME280_pressure;Samples;Min_cycle;Max_cycle;Signal;HPM_P1;HPM_P2
2022/12/21 00:00:40;;;;;;;72.95;36.25;;;;;;;1.59;70.28;100307.56;2034169;87;31466;-63
2022/12/21 00:03:45;;;;;;;77.82;36.13;;;;;;;1.61;70.46;100330.86;2012925;88;27682;-63
2022/12/21 00:06:47;;;;;;;71.87;36.30;;;;;;;1.61;70.59;100346.28;2034643;87;28712;-63
2022/12/21 00:09:49;;;;;;;76.05;35.58;;;;;;;1.59;70.53;100320.77;2012647;88;32287;-62
2022/12/21 00:12:51;;;;;;;79.90;37.00;;;;;;;1.58;70.55;100321.23;2034453;87;34157;-63
2022/12/21 00:16:00;;;;;;;76.50;35.78;;;;;;;1.56;70.65;100311.13;2014398;88;30141;-63
2022/12/21 00:19:01;;;;;;;75.67;36.60;;;;;;;1.51;70.57;100310.30;2039510;87;27696;-63
2022/12/21 00:22:03;;;;;;;77.65;36.75;;;;;;;1.47;70.60;100316.08;2039675;87;28841;-63
2022/12/21 00:25:06;;;;;;;79.58;36.90;;;;;;;1.45;70.74;100311.72;2048617;86;31420;-63
2022/12/21 00:28:08;;;;;;;75.92;36.80;;;;;;;1.42;70.76;100303.36;2035278;87;32983;-63
2022/12/21 00:31:14;;;;;;;76.97;37.95;;;;;;;1.39;70.82;100307.38;2012644;88;30587;-63
2022/12/21 00:34:17;;;;;;;84.52;39.98;;;;;;;1.38;70.87;100299.47;2033037;87;27646;-62
2022/12/21 00:37:19;;;;;;;82.27;38.90;;;;;;;1.36;70.92;100291.58;2033064;87;29519;-63
2022/12/21 00:40:21;;;;;;;81.30;36.45;;;;;;;1.34;70.93;100286.30;2012582;88;31447;-63
2022/12/21 00:43:23;;;;;;;80.87;38.88;;;;;;;1.34;71.03;100279.70;2012621;88;33736;-63
2022/12/21 00:46:31;;;;;;;77.45;37.78;;;;;;;1.35;71.10;100283.23;2012374;88;30549;-64
2022/12/21 00:49:33;;;;;;;71.02;35.65;;;;;;;1.35;71.14;100283.23;2010181;87;28252;-64
2022/12/21 00:52:35;;;;;;;73.28;36.60;;;;;;;1.37;71.24;100281.45;2033402;87;29249;-62
2022/12/21 00:55:37;;;;;;;69.85;33.65;;;;;;;1.39;71.25;100280.98;2033422;87;31993;-63
2022/12/21 00:58:40;;;;;;;71.20;33.80;;;;;;;1.40;71.27;100293.73;2012294;88;34278;-63
2022/12/21 01:01:42;;;;;;;67.60;31.60;;;;;;;1.40;71.23;100299.90;2070557;86;29245;-63
2022/12/21 01:04:44;;;;;;;66.17;32.28;;;;;;;1.38;71.19;100305.64;2032916;87;27693;-63
2022/12/21 01:07:46;;;;;;;61.58;33.02;;;;;;;1.36;71.25;100314.87;2012583;88;29103;-63
2022/12/21 01:10:48;;;;;;;64.80;33.02;;;;;;;1.38;71.33;100329.82;2012590;88;31064;-61
2022/12/21 01:13:50;;;;;;;62.95;32.17;;;;;;;1.39;71.31;100323.66;2033110;87;33352;-61
2022/12/21 01:16:52;;;;;;;61.48;30.72;;;;;;;1.39;71.35;100315.73;2027940;87;30518;-60
2022/12/21 01:19:53;;;;;;;60.98;30.08;;;;;;;1.38;71.36;100288.91;2033381;87;27678;-61
2022/12/21 01:22:55;;;;;;;57.50;29.20;;;;;;;1.38;71.34;100288.48;2012713;88;28674;-62
2022/12/21 01:25:58;;;;;;;57.13;30.32;;;;;;;1.37;71.44;100297.29;2012415;88;32461;-62
2022/12/21 01:29:00;;;;;;;59.48;28.75;;;;;;;1.36;71.47;100289.80;2070287;86;32997;-61
2022/12/21 01:32:02;;;;;;;56.95;28.85;;;;;;;1.36;71.47;100295.08;2032319;87;29851;-61
2022/12/21 01:35:05;;;;;;;57.95;30.30;;;;;;;1.35;71.48;100295.11;2012541;88;27785;-62
2022/12/21 01:38:07;;;;;;;58.55;29.12;;;;;;;1.35;71.51;100289.83;2033168;87;29796;-61
2022/12/21 01:41:17;;;;;;;56.33;28.57;;;;;;;1.34;71.53;100270.47;2033383;87;31880;-62
2022/12/21 01:45:04;;;;;;;45.60;24.95;;;;;;;1.35;71.55;100251.56;2012827;88;33205;-63
2022/12/21 01:48:08;;;;;;;57.03;27.75;;;;;;;1.34;71.56;100250.67;2029765;87;29348;-63
2022/12/21 01:51:10;;;;;;;55.12;27.90;;;;;;;1.34;71.62;100246.71;2070409;85;27712;-63
2022/12/21 01:54:16;;;;;;;49.35;26.12;;;;;;;1.35;71.61;100244.96;2033165;87;29552;-63
2022/12/21 01:57:18;;;;;;;57.20;25.72;;;;;;;1.36;71.65;100245.39;1998138;89;31076;-62
2022/12/21 02:00:21;;;;;;;51.08;26.05;;;;;;;1.36;71.64;100248.89;2012832;88;32459;-63
2022/12/21 02:03:30;;;;;;;55.55;29.32;;;;;;;1.40;71.64;100251.50;2070468;85;30129;-62
2022/12/21 02:06:46;;;;;;;54.25;26.62;;;;;;;1.40;71.67;100239.19;2070573;85;27705;-62
2022/12/21 02:09:50;;;;;;;54.70;27.45;;;;;;;1.41;71.70;100230.34;2069765;86;29144;-63
2022/12/21 02:13:02;;;;;;;54.30;26.17;;;;;;;1.44;71.72;100238.23;2070853;86;31039;-62
2022/12/21 02:16:27;;;;;;;50.95;26.35;;;;;;;1.47;71.78;100261.09;2068437;85;34342;-62
2022/12/21 02:19:55;;;;;;;50.50;26.20;;;;;;;1.50;71.89;100257.07;1961298;90;29399;-61
2022/12/21 02:23:24;;;;;;;48.95;25.37;;;;;;;1.53;71.90;100258.36;1961701;90;27791;-62
2022/12/21 02:27:03;;;;;;;53.28;26.77;;;;;;;1.57;72.00;100244.69;1961602;90;29134;-62
2022/12/21 02:30:21;;;;;;;51.23;26.02;;;;;;;1.59;71.98;100242.45;1941948;91;31694;-63
2022/12/21 02:33:43;;;;;;;52.50;26.48;;;;;;;1.63;72.01;100261.32;1942417;91;33095;-62
2022/12/21 02:37:06;;;;;;;51.45;26.12;;;;;;;1.66;72.07;100263.89;1942239;91;29401;-62
2022/12/21 02:40:40;;;;;;;50.33;26.15;;;;;;;1.70;72.02;100262.54;1942650;91;27841;-62
2022/12/21 02:44:13;;;;;;;52.25;26.95;;;;;;;1.72;72.10;100255.04;1894444;93;30033;-63
2022/12/21 02:47:35;;;;;;;49.00;24.65;;;;;;;1.73;71.80;100236.98;1893236;94;32346;-62
2022/12/21 02:50:38;;;;;;;52.67;26.85;;;;;;;1.71;71.72;100241.84;1892966;93;34360;-63
2022/12/21 02:53:41;;;;;;;53.35;27.15;;;;;;;1.70;71.86;100252.87;1893244;94;30490;-62
2022/12/21 02:56:42;;;;;;;52.45;25.20;;;;;;;1.72;71.90;100246.23;1916043;92;27808;-62
2022/12/21 02:59:47;;;;;;;48.50;26.00;;;;;;;1.73;71.81;100249.30;1928227;92;29045;-62
2022/12/21 03:07:28;;;;;;;51.28;25.70;;;;;;;1.72;71.76;100227.31;1927834;92;33499;-62
2022/12/21 03:10:53;;;;;;;52.03;25.65;;;;;;;1.72;71.81;100226.42;1897750;93;30567;-62
2022/12/21 03:14:28;;;;;;;54.80;27.90;;;;;;;1.73;71.79;100214.53;1897977;93;27838;-62
2022/12/21 03:18:27;;;;;;;53.25;25.35;;;;;;;1.75;71.86;100211.86;1904768;93;29170;-62
2022/12/21 03:21:57;;;;;;;48.28;24.45;;;;;;;1.76;71.79;100214.92;1914593;93;31072;-62
2022/12/21 03:25:16;;;;;;;50.17;25.72;;;;;;;1.77;71.94;100237.34;1917390;92;33933;-63
2022/12/21 03:28:23;;;;;;;46.98;24.05;;;;;;;1.79;71.96;100227.63;1917382;92;30666;-62
2022/12/21 03:31:29;;;;;;;50.78;25.00;;;;;;;1.84;72.05;100224.91;1917806;92;27798;-62
2022/12/21 03:34:35;;;;;;;54.48;26.80;;;;;;;1.86;72.04;100231.05;1936018;91;29728;-65
2022/12/21 03:37:38;;;;;;;52.17;25.40;;;;;;;1.89;71.96;100224.87;1936169;91;31070;-64
2022/12/21 03:40:42;;;;;;;48.17;24.60;;;;;;;1.90;71.91;100226.16;1935870;91;34211;-63
2022/12/21 03:43:46;;;;;;;45.23;23.83;;;;;;;1.91;71.85;100216.45;1936155;91;30071;-62
2022/12/21 03:46:59;;;;;;;49.18;24.80;;;;;;;1.91;71.81;100213.80;1984368;88;27756;-63
2022/12/21 03:50:12;;;;;;;44.23;22.95;;;;;;;1.91;71.88;100205.45;2070198;85;28697;-63
2022/12/21 03:53:28;;;;;;;46.50;25.15;;;;;;;1.95;72.01;100200.55;2031988;87;31404;-63
2022/12/21 03:56:34;;;;;;;50.03;24.43;;;;;;;1.99;71.97;100194.75;2012534;88;34139;-62
2022/12/21 03:59:40;;;;;;;44.18;24.47;;;;;;;2.04;72.06;100189.39;2012762;88;29370;-62
2022/12/21 04:03:02;;;;;;;46.60;23.47;;;;;;;2.07;72.01;100183.59;2070678;85;27658;-62
2022/12/21 04:06:09;;;;;;;47.17;25.17;;;;;;;2.13;72.01;100181.33;2070584;86;28667;-62
2022/12/21 04:09:12;;;;;;;46.95;23.05;;;;;;;2.19;72.12;100195.73;2069434;85;32133;-62
2022/12/21 04:28:06;;;;;;;51.20;24.82;;;;;;;2.37;72.25;100195.00;1996437;89;28889;-62
2022/12/21 04:28:36;;;;;;;45.58;23.70;;;;;;;2.43;72.41;100203.70;1996123;88;34337;-62
2022/12/21 04:31:38;;;;;;;47.95;25.85;;;;;;;2.47;72.57;100197.93;1996145;89;30679;-64
2022/12/21 04:34:40;;;;;;;51.10;25.25;;;;;;;2.50;72.55;100209.75;1996568;89;27758;-63
2022/12/21 04:37:42;;;;;;;55.10;26.35;;;;;;;2.54;72.77;100197.36;1995988;89;29947;-63
2022/12/21 04:40:45;;;;;;;54.13;27.37;;;;;;;2.57;72.94;100197.28;1996362;89;31206;-62
2022/12/21 04:43:48;;;;;;;48.98;26.00;;;;;;;2.57;72.92;100190.23;1975666;89;33833;-63
2022/12/21 04:46:50;;;;;;;53.73;26.15;;;;;;;2.55;72.81;100186.75;1996118;89;30525;-63
2022/12/21 04:49:51;;;;;;;54.42;27.58;;;;;;;2.53;72.80;100174.46;1961917;90;28398;-62
2022/12/21 04:52:53;;;;;;;49.85;25.85;;;;;;;2.49;72.83;100164.38;1960374;90;29906;-63
2022/12/21 04:55:55;;;;;;;48.65;25.80;;;;;;;2.45;72.82;100164.46;1960712;90;31480;-62
2022/12/21 04:58:57;;;;;;;49.15;25.88;;;;;;;2.43;72.93;100160.07;1988981;89;33417;-63
2022/12/21 05:01:58;;;;;;;55.20;27.22;;;;;;;2.41;73.01;100149.97;2030327;87;30511;-62
2022/12/21 05:05:01;;;;;;;46.95;26.15;;;;;;;2.41;73.27;100151.30;2030648;87;27625;-63
2022/12/21 05:08:04;;;;;;;42.95;23.42;;;;;;;2.38;73.26;100139.48;1975000;90;28114;-64
2022/12/21 05:11:18;;;;;;;49.70;24.82;;;;;;;2.36;73.30;100132.45;1977509;90;31254;-63
2022/12/21 05:14:20;;;;;;;51.30;26.02;;;;;;;2.32;73.31;100140.05;1991085;88;33004;-62
2022/12/21 05:17:22;;;;;;;54.98;26.73;;;;;;;2.32;73.55;100141.37;2012730;88;30474;-62
2022/12/21 05:20:24;;;;;;;48.38;25.82;;;;;;;2.32;73.68;100143.55;2012728;88;27654;-65
2022/12/21 05:23:26;;;;;;;53.45;27.05;;;;;;;2.32;73.69;100142.69;2070577;86;29411;-62
2022/12/21 05:26:28;;;;;;;52.35;26.25;;;;;;;2.31;73.83;100135.19;2033132;87;30963;-62
2022/12/21 05:29:29;;;;;;;47.75;24.70;;;;;;;2.33;74.02;100139.11;2012591;88;33331;-63
2022/12/21 05:32:31;;;;;;;52.65;25.45;;;;;;;2.34;74.02;100143.50;2013414;88;29947;-63
2022/12/21 05:35:33;;;;;;;51.20;27.60;;;;;;;2.35;74.15;100146.57;2012848;88;27615;-62
2022/12/21 05:38:35;;;;;;;54.23;27.48;;;;;;;2.34;74.19;100149.68;2033259;87;28785;-63
2022/12/21 05:41:37;;;;;;;51.83;26.52;;;;;;;2.34;74.23;100151.00;2033079;87;30831;-63
2022/12/21 05:44:38;;;;;;;52.03;26.40;;;;;;;2.34;74.23;100152.33;2012401;88;33654;-62
2022/12/21 05:47:42;;;;;;;56.20;27.40;;;;;;;2.34;74.25;100144.83;2012682;88;29126;-63
2022/12/21 05:50:43;;;;;;;48.87;26.05;;;;;;;2.32;74.31;100146.66;2012792;88;28314;-62
2022/12/21 05:53:45;;;;;;;48.75;25.60;;;;;;;2.31;74.32;100148.41;2013084;88;29167;-63
2022/12/21 05:56:47;;;;;;;53.05;26.70;;;;;;;2.31;74.36;100148.87;2033136;87;32165;-63
2022/12/21 05:59:49;;;;;;;54.20;24.90;;;;;;;2.34;74.46;100154.08;2033310;87;33321;-63
2022/12/21 06:02:50;;;;;;;50.73;27.00;;;;;;;2.35;74.48;100150.53;2012457;88;30233;-63
2022/12/21 06:05:52;;;;;;;50.23;25.35;;;;;;;2.38;74.53;100155.77;2012542;88;27793;-63
2022/12/21 06:08:54;;;;;;;50.63;25.70;;;;;;;2.41;74.59;100159.69;2012441;88;29957;-63
2022/12/21 06:11:56;;;;;;;51.23;26.27;;;;;;;2.45;74.80;100160.06;2012981;87;32318;-62
2022/12/21 06:14:58;;;;;;;47.25;24.20;;;;;;;2.48;74.69;100161.33;2030732;87;34103;-63
2022/12/21 06:18:00;;;;;;;51.85;26.73;;;;;;;2.50;74.73;100162.61;2065433;86;30147;-63
2022/12/21 06:21:03;;;;;;;51.83;25.45;;;;;;;2.52;74.66;100160.81;2030937;87;27673;-63
2022/12/21 06:24:06;;;;;;;48.58;24.45;;;;;;;2.53;74.77;100165.20;2065169;86;28845;-64
2022/12/21 06:27:08;;;;;;;49.08;24.98;;;;;;;2.53;74.66;100166.06;2057081;86;31870;-63
2022/12/21 06:30:11;;;;;;;45.90;25.10;;;;;;;2.53;74.66;100160.77;2033088;87;33417;-63
2022/12/21 06:33:13;;;;;;;45.63;23.70;;;;;;;2.54;74.86;100169.13;2013074;88;29435;-63
2022/12/21 06:36:15;;;;;;;48.10;23.38;;;;;;;2.58;75.00;100167.30;2034703;87;27629;-63
2022/12/21 06:39:17;;;;;;;45.20;25.12;;;;;;;2.59;74.69;100171.69;2013168;87;28847;-61
2022/12/21 06:42:18;;;;;;;49.48;25.80;;;;;;;2.59;74.89;100159.78;2034652;87;30997;-63
2022/12/21 06:45:20;;;;;;;49.45;25.97;;;;;;;2.63;75.11;100159.30;2012989;88;33327;-61
2022/12/21 06:48:23;;;;;;;53.05;25.72;;;;;;;2.65;75.19;100162.78;2034601;87;30465;-61
2022/12/21 06:51:25;;;;;;;47.50;25.65;;;;;;;2.67;75.12;100149.94;2013204;88;27734;-61
2022/12/21 06:54:27;;;;;;;47.48;24.02;;;;;;;2.70;75.16;100156.94;2034566;87;29515;-60
2022/12/21 06:57:33;;;;;;;44.65;25.00;;;;;;;2.70;74.97;100149.00;2012715;88;31943;-63
2022/12/21 07:00:36;;;;;;;49.27;25.57;;;;;;;2.69;75.02;100149.90;2034614;87;32969;-61
2022/12/21 07:03:39;;;;;;;50.58;27.37;;;;;;;2.70;75.11;100154.29;2012985;88;30172;-61
2022/12/21 07:06:41;;;;;;;54.05;25.30;;;;;;;2.72;75.19;100161.75;2034693;87;27789;-61
2022/12/21 07:09:43;;;;;;;56.53;28.05;;;;;;;2.76;75.31;100171.81;2013829;88;29338;-62
2022/12/21 07:12:45;;;;;;;53.65;28.30;;;;;;;2.79;75.16;100177.05;2039185;87;31960;-61
2022/12/21 07:15:47;;;;;;;44.23;23.65;;;;;;;2.78;75.07;100170.90;2039698;86;33350;-61
2022/12/21 07:18:49;;;;;;;44.77;23.25;;;;;;;2.76;75.01;100159.47;2048593;86;30461;-61
2022/12/21 07:21:51;;;;;;;47.30;24.15;;;;;;;2.77;74.99;100159.00;2048452;86;28025;-61
2022/12/21 07:24:53;;;;;;;50.33;22.42;;;;;;;2.79;75.05;100166.47;2039989;87;29044;-61
2022/12/21 07:27:57;;;;;;;41.55;22.27;;;;;;;2.82;75.15;100158.01;2048245;86;31935;-62
2022/12/21 07:31:10;;;;;;;40.17;22.20;;;;;;;2.84;75.03;100165.47;2048429;86;34187;-62
2022/12/21 07:34:12;;;;;;;41.33;23.18;;;;;;;2.87;75.06;100157.47;2039472;87;29427;-61
2022/12/21 07:37:14;;;;;;;47.75;23.00;;;;;;;2.92;75.10;100155.20;2048687;86;27765;-61
2022/12/21 07:40:17;;;;;;;45.58;23.35;;;;;;;2.96;75.13;100159.06;2039488;87;29491;-61
2022/12/21 07:43:19;;;;;;;48.87;23.95;;;;;;;3.00;75.10;100148.84;2048240;86;31870;-61
2022/12/21 07:46:20;;;;;;;41.68;22.48;;;;;;;3.06;75.20;100145.19;2039583;87;34098;-61
2022/12/21 07:49:22;;;;;;;43.05;22.48;;;;;;;3.11;75.05;100142.44;2048279;86;30174;-61
2022/12/21 07:52:24;;;;;;;42.85;22.07;;;;;;;3.16;75.05;100155.98;2048618;86;27560;-62
2022/12/21 07:55:26;;;;;;;41.13;22.05;;;;;;;3.24;75.10;100156.28;2039486;87;29901;-62
2022/12/21 07:58:29;;;;;;;40.83;21.87;;;;;;;3.30;75.11;100151.73;2048235;86;32342;-62
2022/12/21 08:01:31;;;;;;;45.43;22.40;;;;;;;3.37;74.95;100156.89;2039453;87;33066;-61
2022/12/21 08:04:33;;;;;;;39.10;19.85;;;;;;;3.45;74.92;100153.61;2048266;86;30196;-61
2022/12/21 08:07:35;;;;;;;40.17;21.02;;;;;;;3.49;74.71;100146.88;2048732;86;27635;-61
2022/12/21 08:10:37;;;;;;;41.28;21.77;;;;;;;3.54;74.58;100144.58;2038817;87;28724;-61
2022/12/21 08:13:41;;;;;;;42.38;21.82;;;;;;;3.57;74.55;100146.70;2048243;86;32279;-62
2022/12/21 08:16:43;;;;;;;36.90;20.57;;;;;;;3.62;74.63;100146.61;2048500;86;33848;-62
2022/12/21 08:19:45;;;;;;;48.78;22.98;;;;;;;3.64;74.47;100146.98;2039124;87;30450;-63
2022/12/21 08:22:47;;;;;;;40.00;22.62;;;;;;;3.68;74.60;100150.42;2048316;86;27714;-62
2022/12/21 08:25:49;;;;;;;37.42;20.45;;;;;;;3.72;74.51;100152.57;2039185;87;30041;-61
2022/12/21 08:28:51;;;;;;;39.98;21.07;;;;;;;3.75;74.40;100151.14;2039274;86;31455;-63
2022/12/21 08:31:53;;;;;;;39.67;20.90;;;;;;;3.79;74.38;100147.09;2034116;87;34864;-62
2022/12/21 08:34:55;;;;;;;40.98;22.10;;;;;;;3.84;74.28;100150.05;2012908;88;29213;-61
2022/12/21 08:37:57;;;;;;;42.83;21.60;;;;;;;3.89;74.37;100163.60;2034598;87;27674;-62
2022/12/21 08:41:03;;;;;;;45.05;23.65;;;;;;;3.92;74.15;100168.84;2013095;88;29054;-62
2022/12/21 08:44:06;;;;;;;42.48;23.12;;;;;;;3.94;74.02;100156.89;2034397;87;31037;-62
2022/12/21 08:47:08;;;;;;;45.38;23.27;;;;;;;3.96;73.99;100164.35;2012731;88;32948;-63
2022/12/21 08:50:11;;;;;;;62.62;36.08;;;;;;;3.97;73.87;100164.77;2034012;87;30545;-61
2022/12/21 08:53:12;;;;;;;45.63;26.07;;;;;;;4.02;74.00;100170.81;2012841;88;27717;-63
2022/12/21 08:56:14;;;;;;;39.45;21.62;;;;;;;4.05;73.68;100169.41;2034162;87;29966;-63
2022/12/21 08:59:16;;;;;;;57.85;35.43;;;;;;;4.08;73.52;100161.83;2013849;88;32271;-62
2022/12/21 09:02:18;;;;;;;41.30;22.13;;;;;;;4.10;73.33;100163.55;2068202;86;33506;-62
2022/12/21 09:05:20;;;;;;;40.48;20.75;;;;;;;4.12;72.96;100159.99;2039210;87;29399;-63
2022/12/21 09:08:23;;;;;;;41.00;20.88;;;;;;;4.12;73.26;100158.20;2048311;86;28321;-62
2022/12/21 09:11:27;;;;;;;36.70;20.97;;;;;;;4.14;73.26;100147.58;2039342;87;28483;-62
2022/12/21 09:14:29;;;;;;;44.20;21.35;;;;;;;4.16;73.34;100138.66;2048624;86;31065;-62
2022/12/21 09:17:31;;;;;;;37.95;21.37;;;;;;;4.20;73.25;100134.14;2039089;87;33901;-65
2022/12/21 09:20:34;;;;;;;33.98;19.17;;;;;;;4.27;73.28;100139.71;2048243;86;31486;-63
2022/12/21 09:23:36;;;;;;;41.23;20.90;;;;;;;4.37;73.24;100135.03;2039341;87;27671;-63
2022/12/21 09:26:38;;;;;;;39.50;22.73;;;;;;;4.43;73.12;100140.62;2048560;86;29531;-61
2022/12/21 09:29:41;;;;;;;40.67;22.60;;;;;;;4.50;73.10;100144.40;2048232;86;31612;-62
2022/12/21 09:32:45;;;;;;;36.53;20.43;;;;;;;4.55;72.90;100142.47;2039291;87;33054;-62
2022/12/21 09:35:51;;;;;;;39.75;22.70;;;;;;;4.60;72.67;100129.54;2048427;86;30144;-61
2022/12/21 09:38:54;;;;;;;42.65;23.55;;;;;;;4.62;72.42;100123.30;2048609;86;27703;-62
2022/12/21 09:42:32;;;;;;;43.35;21.25;;;;;;;4.67;72.63;100131.98;2039425;87;28775;-62
2022/12/21 09:45:56;;;;;;;44.10;22.42;;;;;;;4.74;72.73;100127.84;2048136;86;32270;-62
2022/12/21 09:49:02;;;;;;;38.95;21.07;;;;;;;4.81;72.80;100123.64;2048743;85;33293;-62
2022/12/21 09:52:08;;;;;;;41.35;22.32;;;;;;;4.86;72.47;100119.52;2044500;86;30109;-62
2022/12/21 09:55:20;;;;;;;39.40;21.45;;;;;;;4.89;72.44;100118.55;2039193;87;27809;-62
2022/12/21 09:58:39;;;;;;;44.35;23.55;;;;;;;4.90;72.08;100107.02;2023005;85;28766;-62
2022/12/21 10:02:23;;;;;;;37.53;22.30;;;;;;;4.91;72.01;100100.35;2023547;87;31865;-62
2022/12/21 10:05:55;;;;;;;39.20;21.12;;;;;;;4.92;72.04;100107.84;2068285;85;32998;-62
2022/12/21 10:09:14;;;;;;;37.73;20.80;;;;;;;4.94;71.89;100098.94;2067989;85;30254;-63
2022/12/21 10:12:36;;;;;;;40.73;21.15;;;;;;;4.92;71.87;100094.13;2038498;86;27833;-63
2022/12/21 10:16:12;;;;;;;41.50;23.05;;;;;;;4.96;71.62;100106.41;2038811;87;29881;-62
2022/12/21 10:19:26;;;;;;;;;;;;;;;4.98;71.62;100098.39;2040999;87;32528;-63
2022/12/21 10:22:47;;;;;;;36.42;21.37;;;;;;;5.04;71.78;100107.95;2038152;87;34334;-62
2022/12/21 10:25:54;;;;;;;42.85;22.65;;;;;;;5.08;71.99;100112.26;2038512;87;30658;-62
2022/12/21 10:29:20;;;;;;;44.85;24.07;;;;;;;5.12;71.99;100104.62;2039034;87;27773;-61
2022/12/21 10:32:22;;;;;;;45.28;26.25;;;;;;;5.17;71.56;100110.64;2036244;87;28726;-62
2022/12/21 10:35:38;;;;;;;40.60;22.73;;;;;;;5.11;71.33;100104.20;2035882;87;33319;-62
2022/12/21 10:38:40;;;;;;;47.33;27.87;;;;;;;5.09;71.24;100098.92;2036091;87;33421;-62
2022/12/21 10:41:50;;;;;;;41.58;24.35;;;;;;;5.07;71.22;100095.91;2036125;87;30449;-62
2022/12/21 10:44:53;;;;;;;43.87;23.67;;;;;;;5.09;71.54;100091.43;2035252;87;28415;-61
2022/12/21 10:47:55;;;;;;;40.60;22.65;;;;;;;5.13;71.58;100093.08;2036163;87;28267;-62
2022/12/21 10:51:03;;;;;;;63.70;35.35;;;;;;;5.15;71.66;100089.89;2042333;86;31908;-61
2022/12/21 10:54:09;;;;;;;42.73;24.32;;;;;;;5.18;71.85;100095.12;2054672;86;33759;-62
2022/12/21 10:57:10;;;;;;;45.30;23.73;;;;;;;5.20;72.10;100088.45;2065264;86;29368;-62
2022/12/21 11:00:29;;;;;;;46.58;25.92;;;;;;;5.22;72.18;100091.45;2065372;86;27700;-62
2022/12/21 11:03:39;;;;;;;43.55;24.80;;;;;;;5.23;72.28;100089.22;2065241;86;28931;-62
2022/12/21 11:07:03;;;;;;;44.55;23.27;;;;;;;5.24;72.49;100081.66;2064920;86;31072;-62
2022/12/21 11:10:11;;;;;;;40.35;23.05;;;;;;;5.24;72.55;100086.97;2064887;86;34237;-62
2022/12/21 11:13:15;;;;;;;47.40;23.98;;;;;;;5.25;72.73;100089.16;2062726;86;30480;-62
2022/12/21 11:16:19;;;;;;;41.00;23.80;;;;;;;5.25;72.76;100083.84;2065651;86;27727;-62
2022/12/21 11:19:22;;;;;;;50.90;26.05;;;;;;;5.25;72.96;100075.88;2065320;86;29476;-63
2022/12/21 11:22:29;;;;;;;55.67;31.48;;;;;;;5.25;72.72;100067.91;2064842;86;32278;-63
2022/12/21 11:25:31;;;;;;;63.70;34.70;;;;;;;5.18;72.42;100075.20;2064880;86;33857;-61
2022/12/21 11:28:33;;;;;;;63.63;33.53;;;;;;;5.13;72.44;100066.05;2044523;86;30195;-62
2022/12/21 11:31:36;;;;;;;51.50;28.30;;;;;;;5.08;72.32;100061.81;2067662;86;27833;-62
2022/12/21 11:34:54;;;;;;;49.18;27.58;;;;;;;5.03;72.08;100056.65;2070619;86;28759;-61
2022/12/21 11:38:15;;;;;;;49.93;27.35;;;;;;;4.93;72.01;100068.44;2070997;85;31413;-61
2022/12/21 11:41:27;;;;;;;51.08;27.17;;;;;;;4.86;72.34;100063.34;2070664;86;33838;-61
2022/12/21 11:44:30;;;;;;;49.33;25.92;;;;;;;4.88;72.66;100066.41;2070506;85;29644;-61
2022/12/21 11:48:13;;;;;;;48.78;25.25;;;;;;;4.88;72.74;100064.61;2070238;86;28385;-61
2022/12/21 11:51:52;;;;;;;51.90;27.42;;;;;;;4.91;72.88;100067.61;2070439;86;28832;-62
2022/12/21 11:55:25;;;;;;;51.90;28.47;;;;;;;4.91;72.98;100074.25;2070085;84;31934;-63
2022/12/21 11:58:51;;;;;;;53.13;29.70;;;;;;;4.93;73.21;100069.33;2070113;86;34235;-62
2022/12/21 12:02:11;;;;;;;;;;;;;;;4.96;73.37;100058.63;2034941;87;29345;-63
2022/12/21 12:05:40;;;;;;;49.38;24.72;;;;;;;4.98;73.46;100066.05;1919060;91;28372;-61
2022/12/21 12:09:14;;;;;;;48.02;27.98;;;;;;;4.94;73.26;100059.12;1919024;92;28863;-61
2022/12/21 12:12:42;;;;;;;44.40;25.62;;;;;;;4.90;73.29;100063.22;1918895;92;30739;-63
2022/12/21 12:16:13;;;;;;;48.00;24.90;;;;;;;4.88;73.31;100061.95;1918881;92;34363;-64
2022/12/21 12:19:35;;;;;;;49.53;23.27;;;;;;;4.88;73.50;100071.24;1919172;92;29760;-63
2022/12/21 12:23:03;;;;;;;49.05;24.45;;;;;;;4.88;73.55;100062.42;1919215;92;27637;-62
2022/12/21 12:26:25;;;;;;;48.85;25.35;;;;;;;4.88;73.51;100059.77;1918937;92;29679;-62
2022/12/21 12:29:58;;;;;;;47.62;26.33;;;;;;;4.88;73.69;100058.45;1918899;92;32302;-62
2022/12/21 12:33:14;;;;;;;53.33;29.37;;;;;;;4.86;73.63;100054.48;1937495;91;34229;-63
2022/12/21 12:36:30;;;;;;;85.77;49.18;;;;;;;4.83;73.67;100052.81;1999529;89;29414;-62
2022/12/21 12:40:18;;;;;;;50.85;26.97;;;;;;;4.83;73.75;100046.61;1999171;89;27712;-62
2022/12/21 12:43:47;;;;;;;45.95;28.27;;;;;;;4.81;73.68;100040.48;2031424;87;28212;-61
2022/12/21 12:47:06;;;;;;;43.92;26.25;;;;;;;4.79;73.88;100043.66;1957549;90;31083;-62
2022/12/21 12:50:26;;;;;;;47.60;25.65;;;;;;;4.79;74.00;100034.38;1957226;90;33790;-62
2022/12/21 12:53:42;;;;;;;54.88;28.90;;;;;;;4.78;73.98;100027.33;1972459;90;30689;-62
2022/12/21 12:57:06;;;;;;;47.13;24.55;;;;;;;4.77;73.96;100022.45;1972710;90;27893;-63
2022/12/21 13:00:16;;;;;;;53.05;26.65;;;;;;;4.77;74.15;100028.23;1982451;89;29905;-63
2022/12/21 13:03:40;;;;;;;53.48;27.17;;;;;;;4.79;74.29;100029.06;1972555;90;31941;-62
2022/12/21 13:07:23;;;;;;;48.30;27.60;;;;;;;4.80;74.27;100026.35;1972290;90;34218;-63
2022/12/21 13:10:36;;;;;;;56.33;27.42;;;;;;;4.79;74.35;100032.58;1919375;92;29176;-63
2022/12/21 13:13:56;;;;;;;53.00;27.27;;;;;;;4.76;74.23;100031.81;1919546;92;27735;-61
2022/12/21 13:17:07;;;;;;;54.30;28.07;;;;;;;4.73;74.33;100034.55;1966704;90;29549;-61
2022/12/21 13:20:14;;;;;;;48.08;26.55;;;;;;;4.71;74.54;100033.28;1919466;92;31250;-62
2022/12/21 13:23:27;;;;;;;54.20;27.70;;;;;;;4.71;74.68;100030.16;1926918;91;33125;-62
2022/12/21 13:26:34;;;;;;;55.08;29.05;;;;;;;4.71;74.78;100024.84;2016386;88;30326;-61
2022/12/21 13:29:43;;;;;;;52.30;29.92;;;;;;;4.66;74.45;100026.76;2016350;88;27889;-61
2022/12/21 13:32:52;;;;;;;56.37;28.23;;;;;;;4.61;74.78;100022.50;2007244;87;28861;-61
2022/12/21 13:36:08;;;;;;;53.38;30.05;;;;;;;4.63;75.06;100031.30;1989647;88;31864;-62
2022/12/21 13:39:26;;;;;;;52.95;27.77;;;;;;;4.63;75.03;100028.64;2016165;88;33713;-62
2022/12/21 13:43:01;;;;;;;52.45;30.05;;;;;;;4.60;75.15;100026.95;2035245;87;29328;-61
2022/12/21 13:46:06;;;;;;;59.00;30.15;;;;;;;4.60;75.41;100028.72;2035393;87;27744;-62
2022/12/21 13:49:36;;;;;;;55.55;28.67;;;;;;;4.59;75.41;100034.50;2035060;87;30009;-61
2022/12/21 13:53:04;;;;;;;54.13;27.77;;;;;;;4.55;75.39;100036.35;2066521;86;31628;-61
2022/12/21 13:56:14;;;;;;;53.63;29.70;;;;;;;4.53;75.53;100028.92;2068434;85;34179;-62
2022/12/21 13:59:50;;;;;;;55.67;30.25;;;;;;;4.53;75.64;100032.02;2068588;86;30460;-62
2022/12/21 14:03:17;;;;;;;58.92;31.20;;;;;;;4.52;75.68;100032.48;2068793;86;36215;-62
2022/12/21 14:06:34;;;;;;;;;;;;;;;4.47;75.71;100030.42;2071113;85;29550;-62
2022/12/21 14:09:59;;;;;;;52.53;28.40;;;;;;;4.45;75.97;100032.23;2068928;86;31893;-61
2022/12/21 14:13:19;;;;;;;56.65;30.55;;;;;;;4.44;76.09;100031.83;2068143;85;34339;-61
2022/12/21 14:16:34;;;;;;;54.77;29.25;;;;;;;4.44;76.11;100027.84;2068768;85;29688;-62
2022/12/21 14:19:36;;;;;;;49.50;30.05;;;;;;;4.42;76.24;100029.67;2068815;86;27681;-62
2022/12/21 14:22:44;;;;;;;55.33;31.07;;;;;;;4.41;76.38;100023.95;2068467;86;29601;-61
2022/12/21 14:25:48;;;;;;;55.75;30.62;;;;;;;4.39;76.38;100024.01;2069060;86;31048;-60
2022/12/21 14:28:53;;;;;;;54.35;30.25;;;;;;;4.37;76.44;100031.61;2062999;86;32971;-62
2022/12/21 14:32:06;;;;;;;60.95;32.30;;;;;;;4.36;76.59;100028.06;2020102;86;30398;-62
2022/12/21 14:35:43;;;;;;;57.17;32.17;;;;;;;4.35;76.66;100030.30;2008163;88;27652;-63
2022/12/21 14:39:12;;;;;;;53.30;28.40;;;;;;;4.33;76.64;100032.12;2012857;88;28718;-63
2022/12/21 14:42:55;;;;;;;55.23;28.17;;;;;;;4.30;76.72;100028.70;2070249;85;32339;-63
2022/12/21 14:45:59;;;;;;;54.63;29.63;;;;;;;4.27;76.86;100029.67;2033061;87;33709;-64
2022/12/21 14:49:28;;;;;;;52.30;29.63;;;;;;;4.23;76.93;100026.68;2029322;87;28755;-63